sensor_id;sensor_type;location;lat;lon;timestamp;pressure;altitude;pressure_sealevel;temperature;humidity
62458;BME280;48509;52.122;5.250;2023-12-29T00:00:27;100586.0;;;11.94;100.0
62458;BME280;48509;52.122;5.250;2023-12-29T00:03:40;100597.0;;;11.88;100.0
62458;BME280;48509;52.122;5.250;2023-12-29T00:05:16;100572.0;;;11.91;100.0
62458;BME280;48509;52.122;5.250;2023-12-29T00:06:52;100569.0;;;11.95;100.0
62458;BME280;48509;52.122;5.250;2023-12-29T00:10:05;100580.0;;;11.96;100.0
62458;BME280;48509;52.122;5.250;2023-12-29T00:11:41;100563.0;;;11.86;100.0
62458;BME280;48509;52.122;5.250;2023-12-29T00:13:17;100573.0;;;11.79;100.0
62458;BME280;48509;52.122;5.250;2023-12-29T00:16:29;100569.0;;;11.74;100.0
62458;BME280;48509;52.122;5.250;2023-12-29T00:18:06;100568.0;;;11.64;100.0
62458;BME280;48509;52.122;5.250;2023-12-29T00:19:42;100578.0;;;11.59;100.0
62458;BME280;48509;52.122;5.250;2023-12-29T00:21:18;100563.0;;;11.55;100.0
62458;BME280;48509;52.122;5.250;2023-12-29T00:24:30;100576.0;;;11.6;100.0
62458;BME280;48509;52.122;5.250;2023-12-29T00:26:06;100567.0;;;11.54;100.0
62458;BME280;48509;52.122;5.250;2023-12-29T00:27:42;100548.0;;;11.41;100.0
62458;BME280;48509;52.122;5.250;2023-12-29T00:30:54;100555.0;;;11.35;100.0
62458;BME280;48509;52.122;5.250;2023-12-29T00:32:31;100556.0;;;11.29;100.0
62458;BME280;48509;52.122;5.250;2023-12-29T00:34:07;100559.0;;;11.37;100.0
62458;BME280;48509;52.122;5.250;2023-12-29T00:37:19;100555.0;;;11.38;100.0
62458;BME280;48509;52.122;5.250;2023-12-29T00:38:55;100562.0;;;11.37;100.0
62458;BME280;48509;52.122;5.250;2023-12-29T00:40:31;100547.0;;;11.43;100.0
62458;BME280;48509;52.122;5.250;2023-12-29T00:42:07;100539.0;;;11.51;100.0
62458;BME280;48509;52.122;5.250;2023-12-29T00:45:19;100555.0;;;11.58;100.0
62458;BME280;48509;52.122;5.250;2023-12-29T00:46:56;100547.0;;;11.57;100.0
62458;BME280;48509;52.122;5.250;2023-12-29T00:48:32;100540.0;;;11.66;100.0
62458;BME280;48509;52.122;5.250;2023-12-29T00:51:47;100539.0;;;11.81;100.0
62458;BME280;48509;52.122;5.250;2023-12-29T00:53:23;100536.0;;;11.76;100.0
62458;BME280;48509;52.122;5.250;2023-12-29T00:54:59;100542.0;;;11.77;100.0
62458;BME280;48509;52.122;5.250;2023-12-29T00:58:11;100545.0;;;11.77;100.0
62458;BME280;48509;52.122;5.250;2023-12-29T00:59:47;100548.0;;;11.86;100.0
62458;BME280;48509;52.122;5.250;2023-12-29T01:01:23;100530.0;;;11.9;100.0
62458;BME280;48509;52.122;5.250;2023-12-29T01:04:37;100534.0;;;11.97;100.0
62458;BME280;48509;52.122;5.250;2023-12-29T01:06:14;100538.0;;;12.03;100.0
62458;BME280;48509;52.122;5.250;2023-12-29T01:07:50;100535.0;;;12.03;100.0
62458;BME280;48509;52.122;5.250;2023-12-29T01:09:26;100536.0;;;11.98;100.0
62458;BME280;48509;52.122;5.250;2023-12-29T01:12:39;100523.0;;;12.04;100.0
62458;BME280;48509;52.122;5.250;2023-12-29T01:14:15;100538.0;;;12.06;100.0
62458;BME280;48509;52.122;5.250;2023-12-29T01:15:51;100550.0;;;12.03;100.0
62458;BME280;48509;52.122;5.250;2023-12-29T01:19:03;100525.0;;;12.15;100.0
62458;BME280;48509;52.122;5.250;2023-12-29T01:20:40;100522.0;;;12.03;100.0
62458;BME280;48509;52.122;5.250;2023-12-29T01:22:16;100525.0;;;12.0;100.0
62458;BME280;48509;52.122;5.250;2023-12-29T01:25:28;100521.0;;;11.98;100.0
62458;BME280;48509;52.122;5.250;2023-12-29T01:27:04;100539.0;;;11.99;100.0
62458;BME280;48509;52.122;5.250;2023-12-29T01:28:40;100536.0;;;12.05;100.0
62458;BME280;48509;52.122;5.250;2023-12-29T01:30:16;100537.0;;;12.13;100.0
62458;BME280;48509;52.122;5.250;2023-12-29T01:33:28;100535.0;;;12.03;100.0
62458;BME280;48509;52.122;5.250;2023-12-29T01:35:05;100518.0;;;12.0;100.0
62458;BME280;48509;52.122;5.250;2023-12-29T01:36:42;100520.0;;;11.92;100.0
62458;BME280;48509;52.122;5.250;2023-12-29T01:39:54;100506.0;;;11.92;100.0
62458;BME280;48509;52.122;5.250;2023-12-29T01:41:30;100506.0;;;11.92;100.0
62458;BME280;48509;52.122;5.250;2023-12-29T01:43:06;100515.0;;;11.89;100.0
62458;BME280;48509;52.122;5.250;2023-12-29T01:46:18;100533.0;;;11.91;100.0
62458;BME280;48509;52.122;5.250;2023-12-29T01:47:54;100534.0;;;12.05;100.0
62458;BME280;48509;52.122;5.250;2023-12-29T01:49:33;100521.0;;;12.06;100.0
62458;BME280;48509;52.122;5.250;2023-12-29T01:51:10;100513.0;;;12.12;100.0
62458;BME280;48509;52.122;5.250;2023-12-29T01:54:27;100520.0;;;12.04;100.0
62458;BME280;48509;52.122;5.250;2023-12-29T01:56:06;100514.0;;;12.02;100.0
62458;BME280;48509;52.122;5.250;2023-12-29T01:57:43;100533.0;;;12.01;100.0
62458;BME280;48509;52.122;5.250;2023-12-29T02:00:55;100520.0;;;12.05;100.0
62458;BME280;48509;52.122;5.250;2023-12-29T02:04:47;100527.0;;;12.04;100.0
62458;BME280;48509;52.122;5.250;2023-12-29T02:06:24;100527.0;;;12.01;100.0
62458;BME280;48509;52.122;5.250;2023-12-29T02:08:01;100538.0;;;11.97;100.0
62458;BME280;48509;52.122;5.250;2023-12-29T02:11:16;100533.0;;;11.92;100.0
62458;BME280;48509;52.122;5.250;2023-12-29T02:12:53;100531.0;;;11.95;100.0
62458;BME280;48509;52.122;5.250;2023-12-29T02:14:29;100530.0;;;12.06;100.0
62458;BME280;48509;52.122;5.250;2023-12-29T02:17:51;100544.0;;;12.15;100.0
62458;BME280;48509;52.122;5.250;2023-12-29T02:19:37;100545.0;;;12.1;100.0
62458;BME280;48509;52.122;5.250;2023-12-29T02:21:13;100555.0;;;12.04;100.0
62458;BME280;48509;52.122;5.250;2023-12-29T02:22:49;100537.0;;;12.06;100.0
62458;BME280;48509;52.122;5.250;2023-12-29T02:26:08;100540.0;;;12.07;100.0
62458;BME280;48509;52.122;5.250;2023-12-29T02:27:49;100537.0;;;11.93;100.0
62458;BME280;48509;52.122;5.250;2023-12-29T02:29:29;100542.0;;;11.91;100.0
62458;BME280;48509;52.122;5.250;2023-12-29T02:31:15;100533.0;;;11.93;100.0
62458;BME280;48509;52.122;5.250;2023-12-29T02:34:35;100530.0;;;11.95;100.0
62458;BME280;48509;52.122;5.250;2023-12-29T02:36:14;100538.0;;;11.96;100.0
62458;BME280;48509;52.122;5.250;2023-12-29T02:37:53;100523.0;;;11.92;100.0
62458;BME280;48509;52.122;5.250;2023-12-29T02:39:30;100537.0;;;11.93;100.0
62458;BME280;48509;52.122;5.250;2023-12-29T02:42:45;100534.0;;;11.96;100.0
62458;BME280;48509;52.122;5.250;2023-12-29T02:44:21;100537.0;;;12.0;100.0
62458;BME280;48509;52.122;5.250;2023-12-29T02:45:57;100545.0;;;11.97;100.0
62458;BME280;48509;52.122;5.250;2023-12-29T02:49:09;100543.0;;;11.93;100.0
62458;BME280;48509;52.122;5.250;2023-12-29T02:50:45;100535.0;;;11.92;100.0
62458;BME280;48509;52.122;5.250;2023-12-29T02:52:21;100540.0;;;11.9;100.0
62458;BME280;48509;52.122;5.250;2023-12-29T02:53:57;100528.0;;;11.9;100.0
62458;BME280;48509;52.122;5.250;2023-12-29T02:57:10;100527.0;;;11.89;100.0
62458;BME280;48509;52.122;5.250;2023-12-29T02:58:46;100533.0;;;11.82;100.0
62458;BME280;48509;52.122;5.250;2023-12-29T03:00:22;100536.0;;;11.88;100.0
62458;BME280;48509;52.122;5.250;2023-12-29T03:03:34;100543.0;;;11.82;100.0
62458;BME280;48509;52.122;5.250;2023-12-29T03:05:10;100548.0;;;11.79;100.0
62458;BME280;48509;52.122;5.250;2023-12-29T03:06:46;100533.0;;;11.81;100.0
62458;BME280;48509;52.122;5.250;2023-12-29T03:09:59;100534.0;;;11.72;100.0
62458;BME280;48509;52.122;5.250;2023-12-29T03:11:35;100535.0;;;11.71;100.0
62458;BME280;48509;52.122;5.250;2023-12-29T03:13:12;100540.0;;;11.63;100.0
62458;BME280;48509;52.122;5.250;2023-12-29T03:16:24;100547.0;;;11.62;100.0
62458;BME280;48509;52.122;5.250;2023-12-29T03:19:36;100548.0;;;11.64;100.0
62458;BME280;48509;52.122;5.250;2023-12-29T03:21:17;100551.0;;;11.69;100.0
62458;BME280;48509;52.122;5.250;2023-12-29T03:24:29;100550.0;;;11.69;100.0
62458;BME280;48509;52.122;5.250;2023-12-29T03:26:05;100538.0;;;11.8;100.0
62458;BME280;48509;52.122;5.250;2023-12-29T03:27:42;100531.0;;;11.65;100.0
62458;BME280;48509;52.122;5.250;2023-12-29T03:30:54;100537.0;;;11.56;100.0
62458;BME280;48509;52.122;5.250;2023-12-29T03:32:30;100539.0;;;11.63;100.0
62458;BME280;48509;52.122;5.250;2023-12-29T03:34:06;100540.0;;;11.62;100.0
62458;BME280;48509;52.122;5.250;2023-12-29T03:37:18;100541.0;;;11.59;100.0
62458;BME280;48509;52.122;5.250;2023-12-29T03:38:54;100539.0;;;11.7;100.0
62458;BME280;48509;52.122;5.250;2023-12-29T03:40:30;100534.0;;;11.69;100.0
62458;BME280;48509;52.122;5.250;2023-12-29T03:42:06;100545.0;;;11.55;100.0
62458;BME280;48509;52.122;5.250;2023-12-29T03:45:19;100551.0;;;11.61;100.0
62458;BME280;48509;52.122;5.250;2023-12-29T03:46:55;100539.0;;;11.64;100.0
62458;BME280;48509;52.122;5.250;2023-12-29T03:48:31;100538.0;;;11.65;100.0
62458;BME280;48509;52.122;5.250;2023-12-29T03:51:44;100532.0;;;11.64;100.0
62458;BME280;48509;52.122;5.250;2023-12-29T03:53:20;100523.0;;;11.65;100.0
62458;BME280;48509;52.122;5.250;2023-12-29T03:54:56;100522.0;;;11.55;100.0
62458;BME280;48509;52.122;5.250;2023-12-29T03:58:08;100520.0;;;11.56;100.0
62458;BME280;48509;52.122;5.250;2023-12-29T03:59:44;100524.0;;;11.55;100.0
62458;BME280;48509;52.122;5.250;2023-12-29T04:01:21;100513.0;;;11.7;100.0
62458;BME280;48509;52.122;5.250;2023-12-29T04:02:57;100513.0;;;11.67;100.0
62458;BME280;48509;52.122;5.250;2023-12-29T04:06:16;100507.0;;;11.7;100.0
62458;BME280;48509;52.122;5.250;2023-12-29T04:07:52;100502.0;;;11.82;100.0
62458;BME280;48509;52.122;5.250;2023-12-29T04:09:28;100490.0;;;11.62;100.0
62458;BME280;48509;52.122;5.250;2023-12-29T04:12:41;100492.0;;;11.53;100.0
62458;BME280;48509;52.122;5.250;2023-12-29T04:14:17;100497.0;;;11.55;100.0
62458;BME280;48509;52.122;5.250;2023-12-29T04:15:54;100494.0;;;11.53;100.0
62458;BME280;48509;52.122;5.250;2023-12-29T04:19:06;100507.0;;;11.48;100.0
62458;BME280;48509;52.122;5.250;2023-12-29T04:20:42;100515.0;;;11.57;100.0
62458;BME280;48509;52.122;5.250;2023-12-29T04:22:18;100501.0;;;11.63;100.0
62458;BME280;48509;52.122;5.250;2023-12-29T04:23:54;100499.0;;;11.58;100.0
62458;BME280;48509;52.122;5.250;2023-12-29T04:27:06;100496.0;;;11.79;100.0
62458;BME280;48509;52.122;5.250;2023-12-29T04:28:42;100511.0;;;11.77;100.0
62458;BME280;48509;52.122;5.250;2023-12-29T04:30:19;100518.0;;;11.65;100.0
62458;BME280;48509;52.122;5.250;2023-12-29T04:33:31;100508.0;;;11.58;100.0
62458;BME280;48509;52.122;5.250;2023-12-29T04:35:07;100499.0;;;11.71;100.0
62458;BME280;48509;52.122;5.250;2023-12-29T04:36:43;100505.0;;;11.73;100.0
62458;BME280;48509;52.122;5.250;2023-12-29T04:39:55;100507.0;;;11.67;100.0
62458;BME280;48509;52.122;5.250;2023-12-29T04:41:31;100522.0;;;11.65;100.0
62458;BME280;48509;52.122;5.250;2023-12-29T04:43:07;100528.0;;;11.71;100.0
62458;BME280;48509;52.122;5.250;2023-12-29T04:46:20;100527.0;;;11.76;100.0
62458;BME280;48509;52.122;5.250;2023-12-29T04:47:56;100531.0;;;11.75;100.0
62458;BME280;48509;52.122;5.250;2023-12-29T04:49:32;100510.0;;;11.81;100.0
62458;BME280;48509;52.122;5.250;2023-12-29T04:51:11;100514.0;;;11.86;100.0
62458;BME280;48509;52.122;5.250;2023-12-29T04:54:24;100519.0;;;11.81;100.0
62458;BME280;48509;52.122;5.250;2023-12-29T04:56:00;100513.0;;;11.93;100.0
62458;BME280;48509;52.122;5.250;2023-12-29T04:57:36;100509.0;;;11.93;100.0
62458;BME280;48509;52.122;5.250;2023-12-29T05:00:48;100507.0;;;11.82;100.0
62458;BME280;48509;52.122;5.250;2023-12-29T05:02:25;100516.0;;;11.83;100.0
62458;BME280;48509;52.122;5.250;2023-12-29T05:04:01;100506.0;;;11.86;100.0
62458;BME280;48509;52.122;5.250;2023-12-29T05:07:13;100505.0;;;11.78;100.0
62458;BME280;48509;52.122;5.250;2023-12-29T05:08:49;100502.0;;;11.77;100.0
62458;BME280;48509;52.122;5.250;2023-12-29T05:10:25;100496.0;;;11.75;100.0
62458;BME280;48509;52.122;5.250;2023-12-29T05:12:01;100497.0;;;11.86;100.0
62458;BME280;48509;52.122;5.250;2023-12-29T05:15:13;100501.0;;;11.88;100.0
62458;BME280;48509;52.122;5.250;2023-12-29T05:16:50;100505.0;;;11.9;100.0
62458;BME280;48509;52.122;5.250;2023-12-29T05:18:26;100493.0;;;11.78;100.0
62458;BME280;48509;52.122;5.250;2023-12-29T05:21:38;100505.0;;;11.84;100.0
62458;BME280;48509;52.122;5.250;2023-12-29T05:23:14;100502.0;;;11.84;100.0
62458;BME280;48509;52.122;5.250;2023-12-29T05:24:50;100505.0;;;11.8;100.0
62458;BME280;48509;52.122;5.250;2023-12-29T05:28:03;100513.0;;;11.83;100.0
62458;BME280;48509;52.122;5.250;2023-12-29T05:29:38;100512.0;;;11.71;100.0
62458;BME280;48509;52.122;5.250;2023-12-29T05:31:15;100513.0;;;11.82;100.0
62458;BME280;48509;52.122;5.250;2023-12-29T05:34:27;100506.0;;;11.74;100.0
62458;BME280;48509;52.122;5.250;2023-12-29T05:36:07;100509.0;;;11.74;100.0
62458;BME280;48509;52.122;5.250;2023-12-29T05:37:44;100501.0;;;11.73;100.0
62458;BME280;48509;52.122;5.250;2023-12-29T05:39:20;100496.0;;;11.76;100.0
62458;BME280;48509;52.122;5.250;2023-12-29T05:42:32;100499.0;;;11.79;100.0
62458;BME280;48509;52.122;5.250;2023-12-29T05:44:08;100501.0;;;11.81;100.0
62458;BME280;48509;52.122;5.250;2023-12-29T05:45:45;100499.0;;;11.7;100.0
62458;BME280;48509;52.122;5.250;2023-12-29T05:48:57;100501.0;;;11.76;100.0
62458;BME280;48509;52.122;5.250;2023-12-29T05:50:33;100505.0;;;11.85;100.0
62458;BME280;48509;52.122;5.250;2023-12-29T05:52:09;100503.0;;;11.81;100.0
62458;BME280;48509;52.122;5.250;2023-12-29T05:55:21;100505.0;;;11.79;100.0
62458;BME280;48509;52.122;5.250;2023-12-29T05:56:58;100494.0;;;11.7;100.0
62458;BME280;48509;52.122;5.250;2023-12-29T05:58:34;100492.0;;;11.73;100.0
62458;BME280;48509;52.122;5.250;2023-12-29T06:00:11;100496.0;;;11.63;100.0
62458;BME280;48509;52.122;5.250;2023-12-29T06:03:25;100487.0;;;11.62;100.0
62458;BME280;48509;52.122;5.250;2023-12-29T06:05:01;100484.0;;;11.64;100.0
62458;BME280;48509;52.122;5.250;2023-12-29T06:06:37;100501.0;;;11.7;100.0
62458;BME280;48509;52.122;5.250;2023-12-29T06:09:52;100476.0;;;11.82;100.0
62458;BME280;48509;52.122;5.250;2023-12-29T06:11:28;100488.0;;;11.84;100.0
62458;BME280;48509;52.122;5.250;2023-12-29T06:13:04;100492.0;;;11.83;100.0
62458;BME280;48509;52.122;5.250;2023-12-29T06:16:18;100499.0;;;11.74;100.0
62458;BME280;48509;52.122;5.250;2023-12-29T06:17:54;100494.0;;;11.89;100.0
62458;BME280;48509;52.122;5.250;2023-12-29T06:19:30;100501.0;;;11.84;100.0
62458;BME280;48509;52.122;5.250;2023-12-29T06:21:06;100494.0;;;11.87;100.0
62458;BME280;48509;52.122;5.250;2023-12-29T06:24:18;100500.0;;;11.98;100.0
62458;BME280;48509;52.122;5.250;2023-12-29T06:25:54;100505.0;;;11.94;100.0
62458;BME280;48509;52.122;5.250;2023-12-29T06:27:30;100501.0;;;11.91;100.0
62458;BME280;48509;52.122;5.250;2023-12-29T06:30:43;100511.0;;;11.87;100.0
62458;BME280;48509;52.122;5.250;2023-12-29T06:32:19;100509.0;;;11.91;100.0
62458;BME280;48509;52.122;5.250;2023-12-29T06:33:55;100499.0;;;11.84;100.0
62458;BME280;48509;52.122;5.250;2023-12-29T06:37:08;100499.0;;;11.77;100.0
62458;BME280;48509;52.122;5.250;2023-12-29T06:38:44;100498.0;;;11.95;100.0
62458;BME280;48509;52.122;5.250;2023-12-29T06:40:20;100505.0;;;11.92;100.0
62458;BME280;48509;52.122;5.250;2023-12-29T06:41:56;100501.0;;;11.95;100.0
62458;BME280;48509;52.122;5.250;2023-12-29T06:45:09;100499.0;;;12.1;100.0
62458;BME280;48509;52.122;5.250;2023-12-29T06:46:45;100501.0;;;11.97;100.0
62458;BME280;48509;52.122;5.250;2023-12-29T06:48:21;100495.0;;;11.88;100.0
62458;BME280;48509;52.122;5.250;2023-12-29T06:51:33;100495.0;;;12.13;100.0
62458;BME280;48509;52.122;5.250;2023-12-29T06:53:09;100499.0;;;11.95;100.0
62458;BME280;48509;52.122;5.250;2023-12-29T06:54:48;100497.0;;;11.92;100.0
62458;BME280;48509;52.122;5.250;2023-12-29T06:58:00;100496.0;;;11.96;100.0
62458;BME280;48509;52.122;5.250;2023-12-29T06:59:36;100497.0;;;12.01;100.0
62458;BME280;48509;52.122;5.250;2023-12-29T07:01:13;100511.0;;;11.94;100.0
62458;BME280;48509;52.122;5.250;2023-12-29T07:04:25;100503.0;;;12.0;100.0
62458;BME280;48509;52.122;5.250;2023-12-29T07:06:04;100506.0;;;12.14;100.0
62458;BME280;48509;52.122;5.250;2023-12-29T07:07:40;100512.0;;;12.01;100.0
62458;BME280;48509;52.122;5.250;2023-12-29T07:09:16;100506.0;;;11.87;100.0
62458;BME280;48509;52.122;5.250;2023-12-29T07:12:28;100509.0;;;11.91;100.0
62458;BME280;48509;52.122;5.250;2023-12-29T07:14:04;100512.0;;;11.93;100.0
62458;BME280;48509;52.122;5.250;2023-12-29T07:15:40;100510.0;;;11.89;100.0
62458;BME280;48509;52.122;5.250;2023-12-29T07:18:53;100505.0;;;11.87;100.0
62458;BME280;48509;52.122;5.250;2023-12-29T07:20:29;100501.0;;;11.81;100.0
62458;BME280;48509;52.122;5.250;2023-12-29T07:22:05;100490.0;;;11.74;100.0
62458;BME280;48509;52.122;5.250;2023-12-29T07:25:17;100497.0;;;11.66;100.0
62458;BME280;48509;52.122;5.250;2023-12-29T07:26:53;100505.0;;;11.76;100.0
62458;BME280;48509;52.122;5.250;2023-12-29T07:28:29;100510.0;;;11.81;100.0
62458;BME280;48509;52.122;5.250;2023-12-29T07:30:08;100516.0;;;11.87;100.0
62458;BME280;48509;52.122;5.250;2023-12-29T07:33:20;100520.0;;;11.88;100.0
62458;BME280;48509;52.122;5.250;2023-12-29T07:34:56;100521.0;;;11.82;100.0
62458;BME280;48509;52.122;5.250;2023-12-29T07:36:32;100511.0;;;11.85;100.0
62458;BME280;48509;52.122;5.250;2023-12-29T07:39:44;100508.0;;;11.79;100.0
62458;BME280;48509;52.122;5.250;2023-12-29T07:41:20;100503.0;;;11.86;100.0
62458;BME280;48509;52.122;5.250;2023-12-29T07:42:56;100502.0;;;11.84;100.0
62458;BME280;48509;52.122;5.250;2023-12-29T07:46:08;100506.0;;;11.75;100.0
62458;BME280;48509;52.122;5.250;2023-12-29T07:47:44;100492.0;;;11.67;100.0
62458;BME280;48509;52.122;5.250;2023-12-29T07:49:21;100503.0;;;11.73;100.0
62458;BME280;48509;52.122;5.250;2023-12-29T07:52:42;100493.0;;;11.72;100.0
62458;BME280;48509;52.122;5.250;2023-12-29T07:54:18;100505.0;;;11.78;100.0
62458;BME280;48509;52.122;5.250;2023-12-29T07:55:54;100509.0;;;11.81;100.0
62458;BME280;48509;52.122;5.250;2023-12-29T07:57:30;100506.0;;;11.7;100.0
62458;BME280;48509;52.122;5.250;2023-12-29T08:00:42;100505.0;;;11.78;100.0
62458;BME280;48509;52.122;5.250;2023-12-29T08:02:21;100515.0;;;11.78;100.0
62458;BME280;48509;52.122;5.250;2023-12-29T08:03:57;100527.0;;;11.76;100.0
62458;BME280;48509;52.122;5.250;2023-12-29T08:07:10;100513.0;;;11.71;100.0
62458;BME280;48509;52.122;5.250;2023-12-29T08:08:46;100509.0;;;11.76;100.0
62458;BME280;48509;52.122;5.250;2023-12-29T08:10:22;100517.0;;;11.93;100.0
62458;BME280;48509;52.122;5.250;2023-12-29T08:11:58;100513.0;;;11.83;100.0
62458;BME280;48509;52.122;5.250;2023-12-29T08:15:10;100507.0;;;11.93;100.0
62458;BME280;48509;52.122;5.250;2023-12-29T08:16:46;100521.0;;;11.9;100.0
62458;BME280;48509;52.122;5.250;2023-12-29T08:18:22;100519.0;;;11.96;100.0
62458;BME280;48509;52.122;5.250;2023-12-29T08:21:34;100522.0;;;11.97;100.0
62458;BME280;48509;52.122;5.250;2023-12-29T08:23:11;100514.0;;;11.87;100.0
62458;BME280;48509;52.122;5.250;2023-12-29T08:24:47;100528.0;;;11.93;100.0
62458;BME280;48509;52.122;5.250;2023-12-29T08:27:59;100530.0;;;11.87;100.0
62458;BME280;48509;52.122;5.250;2023-12-29T08:29:35;100523.0;;;11.93;100.0
62458;BME280;48509;52.122;5.250;2023-12-29T08:31:12;100534.0;;;11.97;100.0
62458;BME280;48509;52.122;5.250;2023-12-29T08:32:48;100527.0;;;11.95;100.0
62458;BME280;48509;52.122;5.250;2023-12-29T08:36:02;100530.0;;;11.9;100.0
62458;BME280;48509;52.122;5.250;2023-12-29T08:37:39;100536.0;;;11.93;100.0
62458;BME280;48509;52.122;5.250;2023-12-29T08:39:15;100539.0;;;11.98;100.0
62458;BME280;48509;52.122;5.250;2023-12-29T08:42:27;100535.0;;;12.09;100.0
62458;BME280;48509;52.122;5.250;2023-12-29T08:44:03;100537.0;;;12.03;100.0
62458;BME280;48509;52.122;5.250;2023-12-29T08:45:39;100535.0;;;12.0;100.0
62458;BME280;48509;52.122;5.250;2023-12-29T08:48:51;100523.0;;;12.04;100.0
62458;BME280;48509;52.122;5.250;2023-12-29T08:50:27;100533.0;;;11.96;100.0
62458;BME280;48509;52.122;5.250;2023-12-29T08:52:04;100542.0;;;12.08;100.0
62458;BME280;48509;52.122;5.250;2023-12-29T08:55:16;100532.0;;;12.13;100.0
62458;BME280;48509;52.122;5.250;2023-12-29T08:56:52;100542.0;;;12.09;100.0
62458;BME280;48509;52.122;5.250;2023-12-29T08:58:29;100531.0;;;12.07;100.0
62458;BME280;48509;52.122;5.250;2023-12-29T09:00:06;100534.0;;;11.78;100.0
62458;BME280;48509;52.122;5.250;2023-12-29T09:03:18;100530.0;;;11.86;100.0
62458;BME280;48509;52.122;5.250;2023-12-29T09:04:54;100521.0;;;11.69;100.0
62458;BME280;48509;52.122;5.250;2023-12-29T09:06:30;100538.0;;;11.81;100.0
62458;BME280;48509;52.122;5.250;2023-12-29T09:09:46;100513.0;;;11.67;100.0
62458;BME280;48509;52.122;5.250;2023-12-29T09:11:22;100515.0;;;11.7;100.0
62458;BME280;48509;52.122;5.250;2023-12-29T09:12:58;100527.0;;;11.74;100.0
62458;BME280;48509;52.122;5.250;2023-12-29T09:16:10;100534.0;;;11.66;100.0
62458;BME280;48509;52.122;5.250;2023-12-29T09:17:47;100531.0;;;11.76;100.0
62458;BME280;48509;52.122;5.250;2023-12-29T09:19:23;100530.0;;;11.76;100.0
62458;BME280;48509;52.122;5.250;2023-12-29T09:20:59;100530.0;;;11.74;100.0
62458;BME280;48509;52.122;5.250;2023-12-29T09:24:12;100534.0;;;11.75;100.0
62458;BME280;48509;52.122;5.250;2023-12-29T09:25:48;100537.0;;;11.75;100.0
62458;BME280;48509;52.122;5.250;2023-12-29T09:27:24;100530.0;;;11.75;100.0
62458;BME280;48509;52.122;5.250;2023-12-29T09:30:37;100546.0;;;11.83;100.0
62458;BME280;48509;52.122;5.250;2023-12-29T09:32:13;100555.0;;;11.9;100.0
62458;BME280;48509;52.122;5.250;2023-12-29T09:33:49;100557.0;;;11.82;100.0
62458;BME280;48509;52.122;5.250;2023-12-29T09:37:02;100566.0;;;11.96;100.0
62458;BME280;48509;52.122;5.250;2023-12-29T09:38:38;100551.0;;;11.93;100.0
62458;BME280;48509;52.122;5.250;2023-12-29T09:40:14;100555.0;;;12.04;100.0
62458;BME280;48509;52.122;5.250;2023-12-29T09:41:52;100556.0;;;12.0;100.0
62458;BME280;48509;52.122;5.250;2023-12-29T09:45:10;100555.0;;;12.07;100.0
62458;BME280;48509;52.122;5.250;2023-12-29T09:46:49;100555.0;;;12.08;100.0
62458;BME280;48509;52.122;5.250;2023-12-29T09:48:27;100560.0;;;12.17;100.0
62458;BME280;48509;52.122;5.250;2023-12-29T09:51:41;100556.0;;;12.24;100.0
62458;BME280;48509;52.122;5.250;2023-12-29T09:53:19;100558.0;;;12.31;100.0
62458;BME280;48509;52.122;5.250;2023-12-29T09:54:56;100564.0;;;12.22;100.0
62458;BME280;48509;52.122;5.250;2023-12-29T09:56:33;100567.0;;;12.23;100.0
62458;BME280;48509;52.122;5.250;2023-12-29T09:59:48;100570.0;;;12.22;100.0
62458;BME280;48509;52.122;5.250;2023-12-29T10:01:26;100555.0;;;12.2;100.0
62458;BME280;48509;52.122;5.250;2023-12-29T10:03:04;100559.0;;;12.19;100.0
62458;BME280;48509;52.122;5.250;2023-12-29T10:06:20;100549.0;;;12.28;100.0
62458;BME280;48509;52.122;5.250;2023-12-29T10:08:02;100556.0;;;12.31;100.0
62458;BME280;48509;52.122;5.250;2023-12-29T10:09:39;100545.0;;;12.4;100.0
62458;BME280;48509;52.122;5.250;2023-12-29T10:11:20;100553.0;;;12.29;100.0
62458;BME280;48509;52.122;5.250;2023-12-29T10:14:40;100548.0;;;12.5;100.0
62458;BME280;48509;52.122;5.250;2023-12-29T10:16:28;100555.0;;;12.51;100.0
62458;BME280;48509;52.122;5.250;2023-12-29T10:18:14;100555.0;;;12.47;100.0
62458;BME280;48509;52.122;5.250;2023-12-29T10:20:15;100562.0;;;12.55;100.0
62458;BME280;48509;52.122;5.250;2023-12-29T10:22:08;100563.0;;;12.47;100.0
62458;BME280;48509;52.122;5.250;2023-12-29T10:23:50;100561.0;;;12.42;100.0
62458;BME280;48509;52.122;5.250;2023-12-29T10:27:09;100556.0;;;12.44;100.0
62458;BME280;48509;52.122;5.250;2023-12-29T10:28:46;100563.0;;;12.54;100.0
62458;BME280;48509;52.122;5.250;2023-12-29T10:30:22;100558.0;;;12.56;100.0
62458;BME280;48509;52.122;5.250;2023-12-29T10:33:34;100561.0;;;12.55;100.0
62458;BME280;48509;52.122;5.250;2023-12-29T10:35:11;100559.0;;;12.63;100.0
62458;BME280;48509;52.122;5.250;2023-12-29T10:36:48;100583.0;;;12.75;100.0
62458;BME280;48509;52.122;5.250;2023-12-29T10:38:24;100565.0;;;12.62;100.0
62458;BME280;48509;52.122;5.250;2023-12-29T10:41:37;100567.0;;;12.46;100.0
62458;BME280;48509;52.122;5.250;2023-12-29T10:43:13;100573.0;;;12.53;100.0
62458;BME280;48509;52.122;5.250;2023-12-29T10:45:04;100600.0;;;12.54;100.0
62458;BME280;48509;52.122;5.250;2023-12-29T10:46:41;100571.0;;;12.51;100.0
62458;BME280;48509;52.122;5.250;2023-12-29T10:50:01;100580.0;;;12.63;100.0
62458;BME280;48509;52.122;5.250;2023-12-29T10:51:39;100580.0;;;12.65;100.0
62458;BME280;48509;52.122;5.250;2023-12-29T10:53:16;100582.0;;;12.65;100.0
62458;BME280;48509;52.122;5.250;2023-12-29T10:56:41;100586.0;;;12.61;100.0
62458;BME280;48509;52.122;5.250;2023-12-29T10:58:17;100591.0;;;12.69;100.0
62458;BME280;48509;52.122;5.250;2023-12-29T10:59:54;100580.0;;;12.65;100.0
62458;BME280;48509;52.122;5.250;2023-12-29T11:01:32;100583.0;;;12.71;100.0
62458;BME280;48509;52.122;5.250;2023-12-29T11:04:50;100589.0;;;12.61;100.0
62458;BME280;48509;52.122;5.250;2023-12-29T11:06:27;100589.0;;;12.62;100.0
62458;BME280;48509;52.122;5.250;2023-12-29T11:08:15;100584.0;;;12.69;100.0